sensor_id;sensor_type;location;lat;lon;timestamp;pressure;altitude;pressure_sealevel;temperature;humidity
24234;BME280;12365;43.554;1.388;2022-09-09T00:02:04;99871.16;;;24.25;49.12
24234;BME280;12365;43.554;1.388;2022-09-09T00:04:40;99867.59;;;24.26;49.13
24234;BME280;12365;43.554;1.388;2022-09-09T00:07:21;99864.94;;;24.29;49.10
24234;BME280;12365;43.554;1.388;2022-09-09T00:10:23;99859.59;;;24.29;49.09
24234;BME280;12365;43.554;1.388;2022-09-09T00:21:11;99869.34;;;24.28;49.45
24234;BME280;12365;43.554;1.388;2022-09-09T00:23:54;99877.38;;;24.27;49.44
24234;BME280;12365;43.554;1.388;2022-09-09T00:26:38;99873.84;;;24.23;49.44
24234;BME280;12365;43.554;1.388;2022-09-09T00:31:39;99877.44;;;24.17;49.50
24234;BME280;12365;43.554;1.388;2022-09-09T00:34:12;99879.22;;;24.15;49.44
24234;BME280;12365;43.554;1.388;2022-09-09T00:36:39;99876.56;;;24.14;49.51
24234;BME280;12365;43.554;1.388;2022-09-09T00:39:05;99875.69;;;24.12;49.58
24234;BME280;12365;43.554;1.388;2022-09-09T00:53:09;99872.94;;;24.22;49.31
24234;BME280;12365;43.554;1.388;2022-09-09T00:58:31;99883.66;;;24.21;49.59
24234;BME280;12365;43.554;1.388;2022-09-09T01:03:36;99872.97;;;24.18;49.88
24234;BME280;12365;43.554;1.388;2022-09-09T01:06:15;99881.03;;;24.13;50.12
24234;BME280;12365;43.554;1.388;2022-09-09T01:11:24;99884.59;;;24.08;50.50
24234;BME280;12365;43.554;1.388;2022-09-09T01:14:00;99886.41;;;24.04;50.82
24234;BME280;12365;43.554;1.388;2022-09-09T01:16:29;99883.75;;;24.04;50.86
24234;BME280;12365;43.554;1.388;2022-09-09T01:18:55;99890.84;;;24.04;50.85
24234;BME280;12365;43.554;1.388;2022-09-09T01:21:40;99893.50;;;24.05;51.07
24234;BME280;12365;43.554;1.388;2022-09-09T01:26:52;99897.03;;;24.07;51.17
24234;BME280;12365;43.554;1.388;2022-09-09T01:29:21;99902.38;;;24.07;51.26
24234;BME280;12365;43.554;1.388;2022-09-09T01:31:56;99899.72;;;24.07;51.23
24234;BME280;12365;43.554;1.388;2022-09-09T01:34:25;99909.50;;;24.05;51.36
24234;BME280;12365;43.554;1.388;2022-09-09T01:37:06;99905.94;;;24.06;50.97
24234;BME280;12365;43.554;1.388;2022-09-09T01:39:36;99905.94;;;24.05;51.13
24234;BME280;12365;43.554;1.388;2022-09-09T01:42:05;99919.28;;;24.01;50.77
24234;BME280;12365;43.554;1.388;2022-09-09T01:44:32;99923.78;;;23.98;50.93
24234;BME280;12365;43.554;1.388;2022-09-09T01:46:59;99916.66;;;23.97;50.95
24234;BME280;12365;43.554;1.388;2022-09-09T01:49:24;99897.09;;;23.98;50.83
24234;BME280;12365;43.554;1.388;2022-09-09T01:51:52;99889.97;;;24.00;50.66
24234;BME280;12365;43.554;1.388;2022-09-09T01:54:20;99892.63;;;24.00;51.03
24234;BME280;12365;43.554;1.388;2022-09-09T01:59:59;99889.97;;;24.00;50.64
24234;BME280;12365;43.554;1.388;2022-09-09T02:02:37;99895.31;;;23.97;50.56
24234;BME280;12365;43.554;1.388;2022-09-09T02:05:15;99901.56;;;23.93;50.61
24234;BME280;12365;43.554;1.388;2022-09-09T02:07:47;99901.56;;;23.91;50.68
24234;BME280;12365;43.554;1.388;2022-09-09T02:13:01;99922.03;;;23.82;50.66
24234;BME280;12365;43.554;1.388;2022-09-09T02:15:42;99923.81;;;23.79;50.36
24234;BME280;12365;43.554;1.388;2022-09-09T02:18:11;99937.16;;;23.75;50.60
24234;BME280;12365;43.554;1.388;2022-09-09T02:20:38;99936.25;;;23.71;50.53
24234;BME280;12365;43.554;1.388;2022-09-09T02:23:05;99939.81;;;23.70;50.67
24234;BME280;12365;43.554;1.388;2022-09-09T02:25:36;99937.16;;;23.67;50.65
24234;BME280;12365;43.554;1.388;2022-09-09T02:28:03;99941.63;;;23.65;50.45
24234;BME280;12365;43.554;1.388;2022-09-09T02:30:32;99939.84;;;23.63;50.32
24234;BME280;12365;43.554;1.388;2022-09-09T02:33:01;99930.94;;;23.62;50.39
24234;BME280;12365;43.554;1.388;2022-09-09T02:35:30;99919.38;;;23.65;50.26
24234;BME280;12365;43.554;1.388;2022-09-09T02:37:59;99914.06;;;23.68;50.39
24234;BME280;12365;43.554;1.388;2022-09-09T02:40:27;99897.19;;;23.67;50.24
24234;BME280;12365;43.554;1.388;2022-09-09T02:42:54;99897.19;;;23.67;50.21
24234;BME280;12365;43.554;1.388;2022-09-09T02:45:23;99909.63;;;23.68;50.19
24234;BME280;12365;43.554;1.388;2022-09-09T02:47:51;99914.97;;;23.65;50.23
24234;BME280;12365;43.554;1.388;2022-09-09T02:50:33;99916.75;;;23.63;49.88
24234;BME280;12365;43.554;1.388;2022-09-09T02:53:09;99914.06;;;23.62;50.08
24234;BME280;12365;43.554;1.388;2022-09-09T02:55:47;99912.31;;;23.61;50.06
24234;BME280;12365;43.554;1.388;2022-09-09T02:58:16;99918.53;;;23.61;49.92
24234;BME280;12365;43.554;1.388;2022-09-09T03:00:43;99930.97;;;23.59;50.05
24234;BME280;12365;43.554;1.388;2022-09-09T03:03:09;99926.53;;;23.58;49.94
24234;BME280;12365;43.554;1.388;2022-09-09T03:05:35;99930.97;;;23.59;50.01
24234;BME280;12365;43.554;1.388;2022-09-09T03:08:01;99934.53;;;23.55;49.97
24234;BME280;12365;43.554;1.388;2022-09-09T03:10:27;99931.88;;;23.55;49.93
24234;BME280;12365;43.554;1.388;2022-09-09T03:12:52;99934.53;;;23.55;49.69
24234;BME280;12365;43.554;1.388;2022-09-09T03:15:18;99930.09;;;23.55;49.90
24234;BME280;12365;43.554;1.388;2022-09-09T03:17:43;99929.22;;;23.53;49.79
24234;BME280;12365;43.554;1.388;2022-09-09T03:20:09;99929.22;;;23.55;49.61
24234;BME280;12365;43.554;1.388;2022-09-09T03:22:34;99923.88;;;23.55;49.75
24234;BME280;12365;43.554;1.388;2022-09-09T03:25:00;99921.22;;;23.53;49.83
24234;BME280;12365;43.554;1.388;2022-09-09T03:27:28;99929.19;;;23.52;49.62
24234;BME280;12365;43.554;1.388;2022-09-09T03:29:53;99933.63;;;23.54;49.68
24234;BME280;12365;43.554;1.388;2022-09-09T03:32:19;99938.97;;;23.54;49.67
24234;BME280;12365;43.554;1.388;2022-09-09T03:34:47;99937.19;;;23.53;49.64
24234;BME280;12365;43.554;1.388;2022-09-09T03:37:15;99935.41;;;23.54;49.62
24234;BME280;12365;43.554;1.388;2022-09-09T03:39:40;99929.22;;;23.55;49.67
24234;BME280;12365;43.554;1.388;2022-09-09T03:42:06;99928.31;;;23.56;49.49
24234;BME280;12365;43.554;1.388;2022-09-09T03:44:31;99921.19;;;23.56;49.71
24234;BME280;12365;43.554;1.388;2022-09-09T03:46:57;99922.06;;;23.57;49.41
24234;BME280;12365;43.554;1.388;2022-09-09T03:49:26;99920.31;;;23.57;49.73
24234;BME280;12365;43.554;1.388;2022-09-09T03:51:54;99920.31;;;23.56;49.62
24234;BME280;12365;43.554;1.388;2022-09-09T03:54:19;99923.88;;;23.55;49.59
24234;BME280;12365;43.554;1.388;2022-09-09T03:56:45;99928.31;;;23.54;49.65
24234;BME280;12365;43.554;1.388;2022-09-09T03:59:10;99938.06;;;23.57;49.81
24234;BME280;12365;43.554;1.388;2022-09-09T04:01:36;99936.31;;;23.56;49.46
24234;BME280;12365;43.554;1.388;2022-09-09T04:04:01;99936.28;;;23.54;49.67
24234;BME280;12365;43.554;1.388;2022-09-09T04:06:27;99936.31;;;23.53;49.79
24234;BME280;12365;43.554;1.388;2022-09-09T04:08:53;99940.78;;;23.48;49.82
24234;BME280;12365;43.554;1.388;2022-09-09T04:11:18;99939.00;;;23.42;49.71
24234;BME280;12365;43.554;1.388;2022-09-09T04:13:44;99945.22;;;23.40;49.97
24234;BME280;12365;43.554;1.388;2022-09-09T04:16:10;99941.66;;;23.34;50.06
24234;BME280;12365;43.554;1.388;2022-09-09T04:18:36;99945.22;;;23.33;50.07
24234;BME280;12365;43.554;1.388;2022-09-09T04:21:02;99940.78;;;23.34;50.32
24234;BME280;12365;43.554;1.388;2022-09-09T04:23:28;99949.66;;;23.31;50.11
24234;BME280;12365;43.554;1.388;2022-09-09T04:25:56;99945.25;;;23.27;50.20
24234;BME280;12365;43.554;1.388;2022-09-09T04:28:24;99948.78;;;23.26;50.09
24234;BME280;12365;43.554;1.388;2022-09-09T04:30:49;99935.47;;;23.26;50.13
24234;BME280;12365;43.554;1.388;2022-09-09T04:33:15;99940.78;;;23.28;50.28
24234;BME280;12365;43.554;1.388;2022-09-09T04:35:49;99943.44;;;23.26;50.26
24234;BME280;12365;43.554;1.388;2022-09-09T04:38:16;99936.34;;;23.25;50.17
24234;BME280;12365;43.554;1.388;2022-09-09T04:40:43;99930.16;;;23.25;50.26
24234;BME280;12365;43.554;1.388;2022-09-09T04:43:09;99941.69;;;23.22;50.37
24234;BME280;12365;43.554;1.388;2022-09-09T04:45:35;99945.25;;;23.18;50.37
24234;BME280;12365;43.554;1.388;2022-09-09T04:48:00;99949.69;;;23.18;50.41
24234;BME280;12365;43.554;1.388;2022-09-09T04:50:26;99955.00;;;23.18;50.41
24234;BME280;12365;43.554;1.388;2022-09-09T04:52:51;99953.25;;;23.20;50.18
24234;BME280;12365;43.554;1.388;2022-09-09T04:55:16;99954.13;;;23.20;50.40
24234;BME280;12365;43.554;1.388;2022-09-09T04:57:42;99962.09;;;23.22;50.34
24234;BME280;12365;43.554;1.388;2022-09-09T05:00:08;99963.88;;;23.21;50.49
24234;BME280;12365;43.554;1.388;2022-09-09T05:02:37;99971.00;;;23.22;50.47
24234;BME280;12365;43.554;1.388;2022-09-09T05:05:03;99968.28;;;23.19;50.46
24234;BME280;12365;43.554;1.388;2022-09-09T05:07:29;99978.94;;;23.19;50.57
24234;BME280;12365;43.554;1.388;2022-09-09T05:09:56;99990.50;;;23.15;50.55
24234;BME280;12365;43.554;1.388;2022-09-09T05:12:22;99995.84;;;23.12;50.58
24234;BME280;12365;43.554;1.388;2022-09-09T05:14:53;99987.81;;;23.09;50.84
24234;BME280;12365;43.554;1.388;2022-09-09T05:17:19;99988.72;;;23.06;50.80
24234;BME280;12365;43.554;1.388;2022-09-09T05:19:44;99996.72;;;23.05;50.77
24234;BME280;12365;43.554;1.388;2022-09-09T05:22:10;100001.16;;;23.03;51.17
24234;BME280;12365;43.554;1.388;2022-09-09T05:24:37;100005.56;;;23.01;51.36
24234;BME280;12365;43.554;1.388;2022-09-09T05:27:03;100004.69;;;22.97;51.70
24234;BME280;12365;43.554;1.388;2022-09-09T05:29:31;100010.03;;;22.97;51.71
24234;BME280;12365;43.554;1.388;2022-09-09T05:31:58;100005.53;;;22.94;51.90
24234;BME280;12365;43.554;1.388;2022-09-09T05:34:24;100016.19;;;22.91;52.33
24234;BME280;12365;43.554;1.388;2022-09-09T05:36:49;100022.38;;;22.90;52.51
24234;BME280;12365;43.554;1.388;2022-09-09T05:39:17;100019.72;;;22.87;52.59
24234;BME280;12365;43.554;1.388;2022-09-09T05:41:42;100021.50;;;22.82;52.86
24234;BME280;12365;43.554;1.388;2022-09-09T05:44:07;100025.94;;;22.82;53.08
24234;BME280;12365;43.554;1.388;2022-09-09T05:46:33;100028.56;;;22.80;53.12
24234;BME280;12365;43.554;1.388;2022-09-09T05:48:58;100033.91;;;22.77;53.23
24234;BME280;12365;43.554;1.388;2022-09-09T05:51:26;100038.34;;;22.77;53.56
24234;BME280;12365;43.554;1.388;2022-09-09T05:53:53;100040.97;;;22.75;53.80
24234;BME280;12365;43.554;1.388;2022-09-09T05:56:22;100031.22;;;22.72;54.08
24234;BME280;12365;43.554;1.388;2022-09-09T05:58:49;100033.91;;;22.74;54.18
24234;BME280;12365;43.554;1.388;2022-09-09T06:01:23;100043.63;;;22.70;54.25
24234;BME280;12365;43.554;1.388;2022-09-09T06:03:50;100032.09;;;22.67;54.49
24234;BME280;12365;43.554;1.388;2022-09-09T06:06:20;100034.75;;;22.65;54.55
24234;BME280;12365;43.554;1.388;2022-09-09T06:08:46;100036.53;;;22.66;54.77
24234;BME280;12365;43.554;1.388;2022-09-09T06:11:18;100037.41;;;22.64;54.76
24234;BME280;12365;43.554;1.388;2022-09-09T06:13:43;100040.06;;;22.59;55.00
24234;BME280;12365;43.554;1.388;2022-09-09T06:16:10;100038.25;;;22.58;55.19
24234;BME280;12365;43.554;1.388;2022-09-09T06:18:37;100043.59;;;22.60;55.15
24234;BME280;12365;43.554;1.388;2022-09-09T06:21:05;100037.38;;;22.61;55.24
24234;BME280;12365;43.554;1.388;2022-09-09T06:23:32;100027.63;;;22.63;55.34
24234;BME280;12365;43.554;1.388;2022-09-09T06:26:06;100028.53;;;22.68;55.31
24234;BME280;12365;43.554;1.388;2022-09-09T06:28:35;100030.34;;;22.72;55.37
24234;BME280;12365;43.554;1.388;2022-09-09T06:31:03;100022.34;;;22.75;55.58
24234;BME280;12365;43.554;1.388;2022-09-09T06:33:34;100028.56;;;22.77;55.46
24234;BME280;12365;43.554;1.388;2022-09-09T06:36:05;100030.34;;;22.78;55.50
24234;BME280;12365;43.554;1.388;2022-09-09T06:38:31;100037.44;;;22.82;55.49
24234;BME280;12365;43.554;1.388;2022-09-09T06:40:58;100041.91;;;22.85;55.62
24234;BME280;12365;43.554;1.388;2022-09-09T06:43:26;100037.44;;;22.88;55.61
24234;BME280;12365;43.554;1.388;2022-09-09T06:46:02;100034.78;;;22.88;55.68
24234;BME280;12365;43.554;1.388;2022-09-09T06:48:28;100041.00;;;22.90;55.73
24234;BME280;12365;43.554;1.388;2022-09-09T06:51:10;100042.81;;;22.94;55.69
24234;BME280;12365;43.554;1.388;2022-09-09T06:53:37;100037.50;;;23.01;55.61
24234;BME280;12365;43.554;1.388;2022-09-09T06:56:18;100038.44;;;23.04;55.59
24234;BME280;12365;43.554;1.388;2022-09-09T06:58:45;100029.56;;;23.07;55.72
24234;BME280;12365;43.554;1.388;2022-09-09T07:01:12;100037.53;;;23.08;55.64
24234;BME280;12365;43.554;1.388;2022-09-09T07:03:39;100035.75;;;23.09;55.88
24234;BME280;12365;43.554;1.388;2022-09-09T07:06:06;100037.53;;;23.13;55.88
24234;BME280;12365;43.554;1.388;2022-09-09T07:08:33;100039.28;;;23.14;55.94
24234;BME280;12365;43.554;1.388;2022-09-09T07:11:06;100048.19;;;23.16;55.91
24234;BME280;12365;43.554;1.388;2022-09-09T07:13:33;100046.41;;;23.13;56.00
24234;BME280;12365;43.554;1.388;2022-09-09T07:16:17;100037.53;;;23.11;55.87
24234;BME280;12365;43.554;1.388;2022-09-09T07:18:44;100037.53;;;23.07;55.98
24234;BME280;12365;43.554;1.388;2022-09-09T07:21:11;100039.31;;;23.05;56.04
24234;BME280;12365;43.554;1.388;2022-09-09T07:23:37;100041.97;;;23.05;56.18
24234;BME280;12365;43.554;1.388;2022-09-09T07:26:08;100039.28;;;23.03;56.19
24234;BME280;12365;43.554;1.388;2022-09-09T07:28:34;100038.44;;;23.04;55.87
24234;BME280;12365;43.554;1.388;2022-09-09T07:31:01;100043.72;;;23.03;56.00
24234;BME280;12365;43.554;1.388;2022-09-09T07:33:31;100044.63;;;23.02;56.13
24234;BME280;12365;43.554;1.388;2022-09-09T07:36:05;100047.28;;;23.02;55.99
24234;BME280;12365;43.554;1.388;2022-09-09T07:38:32;100049.91;;;22.99;56.09
24234;BME280;12365;43.554;1.388;2022-09-09T07:41:08;100052.59;;;22.99;56.06
24234;BME280;12365;43.554;1.388;2022-09-09T07:43:45;100059.69;;;22.97;56.28
24234;BME280;12365;43.554;1.388;2022-09-09T07:46:11;100054.31;;;22.93;56.34
24234;BME280;12365;43.554;1.388;2022-09-09T07:48:38;100061.41;;;22.88;56.40
24234;BME280;12365;43.554;1.388;2022-09-09T07:51:05;100064.06;;;22.82;56.42
24234;BME280;12365;43.554;1.388;2022-09-09T07:53:31;100056.94;;;22.81;56.38
24234;BME280;12365;43.554;1.388;2022-09-09T07:56:06;100054.31;;;22.84;56.54
24234;BME280;12365;43.554;1.388;2022-09-09T07:58:31;100057.84;;;22.88;56.52
24234;BME280;12365;43.554;1.388;2022-09-09T08:00:57;100065.81;;;22.86;56.38
24234;BME280;12365;43.554;1.388;2022-09-09T08:03:23;100066.72;;;22.85;56.50
24234;BME280;12365;43.554;1.388;2022-09-09T08:05:48;100064.97;;;22.84;56.54
24234;BME280;12365;43.554;1.388;2022-09-09T08:08:14;100061.41;;;22.82;56.43
24234;BME280;12365;43.554;1.388;2022-09-09T08:10:40;100073.81;;;22.82;56.62
24234;BME280;12365;43.554;1.388;2022-09-09T08:13:05;100072.03;;;22.75;56.61
24234;BME280;12365;43.554;1.388;2022-09-09T08:15:31;100072.91;;;22.78;56.80
24234;BME280;12365;43.554;1.388;2022-09-09T08:17:57;100074.66;;;22.76;56.93
24234;BME280;12365;43.554;1.388;2022-09-09T08:20:22;100074.66;;;22.76;56.88
24234;BME280;12365;43.554;1.388;2022-09-09T08:22:48;100080.88;;;22.75;56.82
24234;BME280;12365;43.554;1.388;2022-09-09T08:25:15;100086.22;;;22.77;57.01
24234;BME280;12365;43.554;1.388;2022-09-09T08:27:40;100091.53;;;22.78;57.16
24234;BME280;12365;43.554;1.388;2022-09-09T08:30:06;100080.00;;;22.81;57.12
24234;BME280;12365;43.554;1.388;2022-09-09T08:32:32;100085.34;;;22.81;57.21
24234;BME280;12365;43.554;1.388;2022-09-09T08:34:57;100086.25;;;22.84;57.05
24234;BME280;12365;43.554;1.388;2022-09-09T08:37:23;100093.34;;;22.85;57.15
24234;BME280;12365;43.554;1.388;2022-09-09T08:39:48;100101.31;;;22.85;57.11
24234;BME280;12365;43.554;1.388;2022-09-09T08:45:03;100115.53;;;22.90;57.00
24234;BME280;12365;43.554;1.388;2022-09-09T08:55:50;100144.75;;;22.77;57.21
24234;BME280;12365;43.554;1.388;2022-09-09T09:01:22;100167.81;;;22.78;57.28
24234;BME280;12365;43.554;1.388;2022-09-09T09:04:32;100168.69;;;22.72;57.20
24234;BME280;12365;43.554;1.388;2022-09-09T09:07:17;100174.84;;;22.62;57.30
24234;BME280;12365;43.554;1.388;2022-09-09T09:12:41;100183.69;;;22.56;57.33
24234;BME280;12365;43.554;1.388;2022-09-09T09:15:16;100204.00;;;22.46;57.39
24234;BME280;12365;43.554;1.388;2022-09-09T09:17:43;100210.91;;;22.23;57.59
24234;BME280;12365;43.554;1.388;2022-09-09T09:20:16;100205.19;;;21.77;57.68
24234;BME280;12365;43.554;1.388;2022-09-09T09:22:48;100214.59;;;21.44;58.32
24234;BME280;12365;43.554;1.388;2022-09-09T09:25:23;100209.97;;;21.28;58.31
24234;BME280;12365;43.554;1.388;2022-09-09T09:30:40;100222.19;;;21.13;58.44
24234;BME280;12365;43.554;1.388;2022-09-09T09:35:41;100245.09;;;21.05;58.44
24234;BME280;12365;43.554;1.388;2022-09-09T09:38:19;100236.25;;;21.06;58.61
24234;BME280;12365;43.554;1.388;2022-09-09T09:40:55;100238.91;;;21.05;58.72
24234;BME280;12365;43.554;1.388;2022-09-09T09:43:28;100242.38;;;21.00;58.81
24234;BME280;12365;43.554;1.388;2022-09-09T09:45:54;100246.91;;;21.11;58.73
24234;BME280;12365;43.554;1.388;2022-09-09T09:48:20;100246.97;;;21.15;58.78
24234;BME280;12365;43.554;1.388;2022-09-09T09:53:29;100248.69;;;21.10;58.75
24234;BME280;12365;43.554;1.388;2022-09-09T09:56:00;100253.97;;;21.07;59.00
24234;BME280;12365;43.554;1.388;2022-09-09T09:58:27;100260.19;;;21.11;59.06
24234;BME280;12365;43.554;1.388;2022-09-09T10:00:56;100252.25;;;21.12;58.95
24234;BME280;12365;43.554;1.388;2022-09-09T10:03:32;100256.69;;;21.13;59.31
24234;BME280;12365;43.554;1.388;2022-09-09T10:06:03;100264.66;;;21.13;59.17
24234;BME280;12365;43.554;1.388;2022-09-09T10:08:29;100262.84;;;21.11;59.21
24234;BME280;12365;43.554;1.388;2022-09-09T10:19:03;100277.47;;;20.80;59.69
24234;BME280;12365;43.554;1.388;2022-09-09T10:32:06;100289.13;;;20.94;59.52
24234;BME280;12365;43.554;1.388;2022-09-09T10:34:55;100283.84;;;20.94;59.45
24234;BME280;12365;43.554;1.388;2022-09-09T10:37:54;100283.91;;;20.98;59.22
24234;BME280;12365;43.554;1.388;2022-09-09T10:54:08;100256.56;;;21.76;58.34
24234;BME280;12365;43.554;1.388;2022-09-09T10:56:38;100256.63;;;21.85;58.10
24234;BME280;12365;43.554;1.388;2022-09-09T10:59:12;100253.22;;;21.95;57.91
24234;BME280;12365;43.554;1.388;2022-09-09T11:01:44;100244.38;;;22.02;57.87
24234;BME280;12365;43.554;1.388;2022-09-09T11:04:35;100247.97;;;22.07;57.65
24234;BME280;12365;43.554;1.388;2022-09-09T11:07:08;100245.38;;;22.14;57.40
24234;BME280;12365;43.554;1.388;2022-09-09T11:09:39;100248.13;;;22.23;57.26
24234;BME280;12365;43.554;1.388;2022-09-09T11:12:10;100244.63;;;22.27;57.34
24234;BME280;12365;43.554;1.388;2022-09-09T11:14:43;100246.47;;;22.34;57.36
24234;BME280;12365;43.554;1.388;2022-09-09T11:17:37;100249.16;;;22.39;57.18
24234;BME280;12365;43.554;1.388;2022-09-09T11:20:06;100242.97;;;22.41;57.17
24234;BME280;12365;43.554;1.388;2022-09-09T11:22:41;100245.69;;;22.46;57.04
24234;BME280;12365;43.554;1.388;2022-09-09T11:25:26;100251.06;;;22.54;57.13
24234;BME280;12365;43.554;1.388;2022-09-09T11:33:47;100231.69;;;22.81;56.56
24234;BME280;12365;43.554;1.388;2022-09-09T11:41:43;100219.28;;;22.83;55.99
24234;BME280;12365;43.554;1.388;2022-09-09T11:44:17;100214.84;;;22.86;56.11
24234;BME280;12365;43.554;1.388;2022-09-09T11:46:46;100214.00;;;22.89;55.98
24234;BME280;12365;43.554;1.388;2022-09-09T11:49:40;100219.38;;;22.97;55.92
24234;BME280;12365;43.554;1.388;2022-09-09T11:52:24;100218.53;;;23.04;55.82
24234;BME280;12365;43.554;1.388;2022-09-09T11:54:54;100220.31;;;23.05;55.74
24234;BME280;12365;43.554;1.388;2022-09-09T11:57:32;100217.66;;;23.08;55.81
24234;BME280;12365;43.554;1.388;2022-09-09T11:59:59;100224.78;;;23.12;55.49
24234;BME280;12365;43.554;1.388;2022-09-09T12:02:27;100216.81;;;23.18;55.62
24234;BME280;12365;43.554;1.388;2022-09-09T12:05:21;100225.72;;;23.29;55.49
24234;BME280;12365;43.554;1.388;2022-09-09T12:07:57;100218.66;;;23.39;55.17
24234;BME280;12365;43.554;1.388;2022-09-09T12:10:32;100224.91;;;23.53;55.22
24234;BME280;12365;43.554;1.388;2022-09-09T12:13:26;100224.94;;;23.69;55.19
24234;BME280;12365;43.554;1.388;2022-09-09T12:15:59;100226.75;;;23.79;54.96
24234;BME280;12365;43.554;1.388;2022-09-09T12:23:45;100227.66;;;24.22;54.31
24234;BME280;12365;43.554;1.388;2022-09-09T12:31:56;100236.56;;;24.52;54.07
24234;BME280;12365;43.554;1.388;2022-09-09T12:34:46;100249.88;;;24.60;54.14
24234;BME280;12365;43.554;1.388;2022-09-09T12:42:32;100244.53;;;24.64;53.69
24234;BME280;12365;43.554;1.388;2022-09-09T12:45:02;100237.41;;;24.68;53.84
24234;BME280;12365;43.554;1.388;2022-09-09T12:50:00;100238.28;;;24.75;53.70
24234;BME280;12365;43.554;1.388;2022-09-09T12:52:31;100237.38;;;24.86;53.98
24234;BME280;12365;43.554;1.388;2022-09-09T12:55:00;100236.47;;;24.97;53.48
24234;BME280;12365;43.554;1.388;2022-09-09T12:57:33;100236.41;;;25.07;53.22
24234;BME280;12365;43.554;1.388;2022-09-09T13:00:06;100230.16;;;25.18;53.29
24234;BME280;12365;43.554;1.388;2022-09-09T13:02:32;100228.34;;;25.27;53.19
24234;BME280;12365;43.554;1.388;2022-09-09T13:05:08;100228.28;;;25.40;52.83
24234;BME280;12365;43.554;1.388;2022-09-09T13:07:38;100229.09;;;25.52;52.88
24234;BME280;12365;43.554;1.388;2022-09-09T13:10:04;100224.53;;;25.67;52.41
24234;BME280;12365;43.554;1.388;2022-09-09T13:12:29;100219.09;;;25.79;52.17
24234;BME280;12365;43.554;1.388;2022-09-09T13:14:56;100216.44;;;25.85;51.98
24234;BME280;12365;43.554;1.388;2022-09-09T13:17:26;100210.13;;;25.92;51.51
24234;BME280;12365;43.554;1.388;2022-09-09T13:19:54;100203.81;;;26.00;51.88
24234;BME280;12365;43.554;1.388;2022-09-09T13:22:34;100212.66;;;26.11;51.72
24234;BME280;12365;43.554;1.388;2022-09-09T13:25:03;100195.56;;;26.27;51.52
24234;BME280;12365;43.554;1.388;2022-09-09T13:27:34;100202.63;;;26.36;50.89
24234;BME280;12365;43.554;1.388;2022-09-09T13:30:20;100195.47;;;26.36;50.72
24234;BME280;12365;43.554;1.388;2022-09-09T13:32:48;100187.38;;;26.43;50.38
24234;BME280;12365;43.554;1.388;2022-09-09T13:35:24;100187.28;;;26.52;50.45
24234;BME280;12365;43.554;1.388;2022-09-09T13:37:50;100187.28;;;26.55;50.02
24234;BME280;12365;43.554;1.388;2022-09-09T13:40:20;100183.59;;;26.65;49.97
24234;BME280;12365;43.554;1.388;2022-09-09T13:42:47;100183.56;;;26.70;49.70
24234;BME280;12365;43.554;1.388;2022-09-09T13:45:20;100179.91;;;26.75;49.57
24234;BME280;12365;43.554;1.388;2022-09-09T13:47:46;100178.97;;;26.78;48.97
24234;BME280;12365;43.554;1.388;2022-09-09T13:50:28;100172.69;;;26.80;49.09
24234;BME280;12365;43.554;1.388;2022-09-09T13:52:57;100181.66;;;26.79;48.83
24234;BME280;12365;43.554;1.388;2022-09-09T13:55:27;100173.72;;;26.70;48.86
24234;BME280;12365;43.554;1.388;2022-09-09T13:57:54;100169.28;;;26.69;48.67
24234;BME280;12365;43.554;1.388;2022-09-09T14:00:21;100160.28;;;26.73;48.51
24234;BME280;12365;43.554;1.388;2022-09-09T14:02:47;100157.47;;;26.87;48.20
24234;BME280;12365;43.554;1.388;2022-09-09T14:05:13;100158.13;;;27.03;48.07
24234;BME280;12365;43.554;1.388;2022-09-09T14:07:39;100158.91;;;27.11;47.93
24234;BME280;12365;43.554;1.388;2022-09-09T14:10:07;100157.09;;;27.15;47.60
24234;BME280;12365;43.554;1.388;2022-09-09T14:12:33;100155.22;;;27.25;47.31
24234;BME280;12365;43.554;1.388;2022-09-09T14:14:58;100151.59;;;27.27;47.18
24234;BME280;12365;43.554;1.388;2022-09-09T14:17:25;100156.13;;;27.22;47.13
24234;BME280;12365;43.554;1.388;2022-09-09T14:19:54;100153.59;;;27.08;47.11
24234;BME280;12365;43.554;1.388;2022-09-09T14:22:20;100149.28;;;26.98;47.19
24234;BME280;12365;43.554;1.388;2022-09-09T14:24:45;100151.13;;;26.93;47.26
24234;BME280;12365;43.554;1.388;2022-09-09T14:27:11;100149.38;;;26.89;47.05
24234;BME280;12365;43.554;1.388;2022-09-09T14:29:36;100149.44;;;26.86;47.18
24234;BME280;12365;43.554;1.388;2022-09-09T14:32:02;100142.16;;;26.94;46.86
24234;BME280;12365;43.554;1.388;2022-09-09T14:34:27;100134.00;;;27.05;46.89
24234;BME280;12365;43.554;1.388;2022-09-09T14:36:52;100138.28;;;27.16;46.61
24234;BME280;12365;43.554;1.388;2022-09-09T14:39:18;100132.75;;;27.32;46.56
24234;BME280;12365;43.554;1.388;2022-09-09T14:41:43;100119.28;;;27.36;46.44
24234;BME280;12365;43.554;1.388;2022-09-09T14:44:09;100124.69;;;27.33;46.07
24234;BME280;12365;43.554;1.388;2022-09-09T14:46:35;100125.63;;;27.31;45.73
24234;BME280;12365;43.554;1.388;2022-09-09T14:49:00;100121.03;;;27.39;45.99
24234;BME280;12365;43.554;1.388;2022-09-09T14:51:26;100117.28;;;27.49;45.66
24234;BME280;12365;43.554;1.388;2022-09-09T14:53:58;100114.53;;;27.55;45.46
24234;BME280;12365;43.554;1.388;2022-09-09T14:56:25;100100.94;;;27.64;45.28
24234;BME280;12365;43.554;1.388;2022-09-09T14:58:55;100102.63;;;27.72;44.78
24234;BME280;12365;43.554;1.388;2022-09-09T15:01:21;100095.25;;;27.86;44.87
24234;BME280;12365;43.554;1.388;2022-09-09T15:03:51;100104.78;;;28.02;44.69
24234;BME280;12365;43.554;1.388;2022-09-09T15:06:17;100102.66;;;28.20;44.16
24234;BME280;12365;43.554;1.388;2022-09-09T15:08:44;100096.13;;;28.35;44.02
24234;BME280;12365;43.554;1.388;2022-09-09T15:11:11;100096.94;;;28.38;43.80
24234;BME280;12365;43.554;1.388;2022-09-09T15:13:38;100101.66;;;28.25;43.77